Tiempo atmosférico en la estación meteorológica de A Coruña, A Coruña (58 m.)



Fecha
DESCASC
Temp. máxima en grados centígrados (hora)
DESCASC
Temp. mínima en grados centígrados (hora)
DESCASC
Temp. media en grados centígrados
DESCASC
Racha de viento máxima en m/sg (hora)
DESCASC
Velocidad máxima media en intervalos de 10 minutos(hora)
DESCASC
Precipitaciones diarias en mm
DESCASC
Precipitaciones de 00:00 a 06:00 en mm
DESCASC
Precipitaciones de 06:00 a 12:00 en mm
DESCASC
Precipitaciones de 12:00 a 18:00 en mm
DESCASC
Precipitaciones de 18:00 a 24:00 en mm
DESCASC
22-11-2020 17.8 (13:10) 9.5 (08:50) 13.6 3.89 (05:10) 3.06 (04:10) 0 0 0 0 0
21-11-2020 19 (15:00) 9.6 (08:50) 14.3 6.39 (07:20) 3.89 (10:00) 0 0 0 0 0
20-11-2020 17.1 (15:10) 10.2 (08:40) 13.7 8.89 (17:50) 5.83 (17:50) 0 0 0 0 0
19-11-2020 15.9 (14:30) 12.3 (00:00) 14.1 11.94 (16:40) 7.78 (17:40) 0 0 0 0 0
18-11-2020 22 (14:10) 13.6 (00:00) 17.8 13.61 (22:40) 8.89 (22:40) 8.4 0 0.4 4 4
17-11-2020 21.6 (15:00) 9.6 (00:00) 15.6 12.5 (23:20) 6.11 (23:30) 0 0 0 0 0
16-11-2020 17 (14:20) 11.2 (00:00) 14.1 3.89 (05:10) 3.06 (05:00) 0 0 0 0 0
15-11-2020 18.9 (05:30) 13.3 (00:00) 16.1 16.39 (07:30) 8.89 (06:40) 8 0 6.6 1.4 0
14-11-2020 19 (16:20) 15.4 (00:00) 17.2 14.72 (11:00) 6.94 (11:00) 0.2 0 0 0 0.2
13-11-2020 20.6 (15:10) 13.1 (00:00) 16.9 9.72 (14:00) 5 (15:40) 0 0 0 0 0
12-11-2020 21.3 (14:30) 12.4 (00:00) 16.8 8.61 (12:40) 5 (12:40) 4.8 4.6 0.2 0 0
11-11-2020 17.2 (14:40) 11.5 (00:00) 14.4 14.44 (18:20) 8.06 (12:20) 2 0 0 0 2
10-11-2020 18.2 (14:20) 12.5 (00:00) 15.4 6.11 (12:20) 3.61 (12:40) 0 0 0 0 0
09-11-2020 16.5 (12:20) 13.2 (00:00) 14.8 9.44 (01:30) 5.28 (01:10) 2.4 1.2 0.2 1 0
08-11-2020 19.7 (13:10) 13.9 (00:00) 16.8 15.56 (07:00) 7.78 (07:10) 5 0.6 2.2 2.2 0
07-11-2020 18.4 (14:50) 13 (00:00) 15.7 17.5 (12:50) 8.06 (12:50) 0 0 0 0 0
06-11-2020 19.1 (14:20) 13.7 (00:00) 16.4 10.28 (13:50) 5.28 (13:50) 0.8 0 0 0.4 0.4
05-11-2020 15.5 (11:10) 12.6 (00:00) 14.1 19.17 (01:00) 10.83 (01:00) 0 0 0 0 0
04-11-2020 13.5 (13:30) 8.9 (00:00) 11.2 16.39 (23:10) 9.44 (23:10) 1.8 0.6 1.2 0 0
03-11-2020 14.7 (13:50) 10.9 (00:00) 12.8 11.67 (12:20) 8.06 (09:30) 0.2 0.2 0 0 0
02-11-2020 20.4 (02:20) 13 (00:00) 16.7 15.56 (08:00) 8.06 (08:10) 7.8 0 7.6 0.2 0
01-11-2020 22.2 (13:50) 19.2 (00:00) 20.7 15.28 (01:20) 8.61 (15:40) 0.4 0 0.4 0 0
31-10-2020 21.4 (13:20) 16.6 (00:00) 19 15.83 (20:40) 7.22 (10:00) 0.4 0 0 0 0.4
30-10-2020 21.7 (15:50) 11.6 (00:00) 16.7 11.67 (23:59) 5.56 (23:59) 0 0 0 0 0
29-10-2020 18.6 (15:20) 13.5 (00:00) 16.1 8.89 (12:50) 5 (13:50) 0 0 0 0 0
28-10-2020 18.5 (13:20) 13.4 (00:00) 15.9 10.28 (11:20) 5.83 (10:20) 0.2 0.2 0 0 0
27-10-2020 18.2 (14:50) 13.1 (00:00) 15.7 16.67 (12:10) 8.89 (12:20) 5.4 0 0 5.2 0.2

Gráficas

Temp. máximas Temp. mínimas Temp. medias Precipitaciones Rachas de viento máximas Velocidades máximas media en intervalos de 10 minutos

Datos horarios

Fecha y hora oficial Temperatura (ºC) Velocidad del viento (km/h) Dirección del viento Racha (km/h) Dirección de racha Precipitación (mm) Presión (hPa) Tendencia (hPa) Humedad (%)
2020-11-25 23:00:00 10.5 9 Nordeste 14 Nordeste 1.4 1003 0.3 94
2020-11-25 22:00:00 10.8 8 Nordeste 15 Este 0.4 1002.8 0.6 91
2020-11-25 21:00:00 11.1 12 Nordeste 21 Nordeste 0.4 1002.8 0.6 89
2020-11-25 20:00:00 11.4 12 Nordeste 26 Nordeste 0 1002.7 0.5 88
2020-11-25 19:00:00 11.5 13 Nordeste 22 Nordeste 0.2 1002.2 0.1 89
2020-11-25 18:00:00 11.7 8 Este 14 Sudeste 0 1002.2 -0.7 93
2020-11-25 17:00:00 12.1 8 Sudeste 18 Sudeste 0 1002.2 -1.4 90
2020-11-25 16:00:00 12.3 9 Nordeste 23 Norte 0.2 1002.1 -2.3 87
2020-11-25 15:00:00 12 19 Norte 34 Noroeste 0.8 1002.9 -2.4 88
2020-11-25 14:00:00 12.4 15 Noroeste 35 Noroeste 0 1003.6 -1.4 88
2020-11-25 13:00:00 12 18 Noroeste -- -- -- 1004.4 -- 90
2020-11-25 12:00:00 12.1 15 Noroeste 32 Noroeste 0 1005.3 -- 87
2020-11-25 11:00:00 11.6 19 Noroeste 38 Noroeste 0 1005 -- 90
2020-11-25 10:00:00 11.1 20 Noroeste 40 Oeste 0 1005.1 -- 92
2020-11-25 09:00:00 10.9 17 Oeste 40 Oeste 0 1005.1 -- 83
2020-11-25 08:00:00 11 26 Oeste 41 Noroeste 0 1005.3 -- 83
2020-11-25 07:00:00 11 17 Noroeste 31 Noroeste 0 1005 -- 85
2020-11-25 06:00:00 10.8 11 Oeste 25 Sudoeste 0.8 1004.7 -- 92
2020-11-25 05:00:00 10.9 15 Sudoeste 27 Sudoeste 0 1004.9 -- 93
2020-11-25 04:00:00 10.8 7 Sur 13 Sur 0 1004.9 -- 93
2020-11-25 03:00:00 10.9 8 Sur 17 Sudoeste 2.2 1004.8 -- 93
2020-11-25 02:00:00 11.3 6 Sudoeste 12 Sur 0.2 1005.3 -- 91
2020-11-25 01:00:00 11.4 8 Sudoeste 14 Sudoeste 1.4 1005.5 -- 94
2020-11-25 00:00:00 11.3 6 Oeste 36 Noroeste 4.4 1005.8 -- 95
2020-11-24 23:00:00 12.8 13 Oeste 30 Sudoeste 5.8 1006 -- 96
2020-11-24 22:00:00 13.8 15 Sudoeste 36 Sur 1.6 1005.3 -- 86
2020-11-24 21:00:00 13.9 17 Sur 43 Sudoeste 2.4 1005.4 -- 87
2020-11-24 20:00:00 14.9 19 Sur 47 Sur 0 1004.9 -- 78
2020-11-24 19:00:00 14.6 17 Sur 33 Sur 0 1005.5 -- 80
2020-11-24 18:00:00 14.7 15 Sur 42 Sur 0 1006.2 -- 80
2020-11-24 17:00:00 15.3 17 Sur 45 Sur 0 1006.7 -- 76
2020-11-24 16:00:00 15.5 15 Sur 41 Sur 0 1007.1 -- 74
2020-11-24 15:00:00 15.2 19 Sur 46 Sudoeste 0 1008 -- 74
2020-11-24 14:00:00 15.5 14 Sur 34 Sudoeste 0 1009 -- 72
2020-11-24 13:00:00 15.3 14 Sur 40 Sudoeste 0 1010.1 -- 72
2020-11-24 12:00:00 15.1 18 Sur 37 Sur 0 1011 -- 73
2020-11-24 11:00:00 13.8 12 Sur 26 Sur 0 1011.7 -- 78
2020-11-24 10:00:00 12.4 15 Sur 27 Sur 0 1012 -- 85
2020-11-24 09:00:00 11.5 12 Sur 20 Sur 0 1012.4 -- 89
2020-11-24 08:00:00 11.4 10 Sur 26 Sur 0 1012.6 -- 88
2020-11-24 07:00:00 10.7 18 Sudeste 29 Sudeste 0 1012.9 -- 85
2020-11-24 06:00:00 10.7 16 Sur 23 Sur 0 1013.4 -- 81
2020-11-24 05:00:00 10.4 8 Sur 12 Sur 0 1013.7 -- 81
2020-11-24 04:00:00 10.3 4 Sur 10 Sur 0 1014 -- 82
2020-11-24 03:00:00 10.8 3 Noroeste 17 Sur 0 1014.1 -- 81
2020-11-24 02:00:00 11.1 9 Sur 13 Sur 0 1014.6 -- 80
2020-11-24 01:00:00 10.7 3 Sudeste 9 Sur 0 1015.4 -- 85
2020-11-24 00:00:00 10.9 8 Sur 10 Sur 0 1015.7 -- 88
2020-11-23 23:00:00 11.4 2 Noroeste 9 Sur 0 1016.3 -- 88
2020-11-23 22:00:00 11.9 4 Sur 9 Sur 0 1016.7 -- 91
2020-11-23 21:00:00 12.1 0 Calma 9 Oeste 0 1016.9 -- 88
2020-11-23 20:00:00 12.4 7 Oeste 11 Oeste 0 1017 -- 87
2020-11-23 19:00:00 12.6 5 Oeste 10 Sudoeste 0 1017.1 -- 89
2020-11-23 18:00:00 13.3 3 Oeste 7 Oeste 0 1016.8 -- 86
2020-11-23 17:00:00 13.9 2 Noroeste 8 Norte 0 1016.8 -- 82
2020-11-23 16:00:00 13.9 5 Norte 12 Norte 0 1017 -- 85
2020-11-23 15:00:00 15.4 8 Norte 13 Norte 0 1017.6 -- 76
2020-11-23 14:00:00 17.2 4 Este 12 Sudeste 0 1018.2 -- 52
2020-11-23 13:00:00 15.9 7 Sudeste 13 Sudeste 0 1019 -- 58
2020-11-23 12:00:00 14.3 4 Sudeste 13 Sudeste 0 1020 -- 63
2020-11-23 11:00:00 11.9 9 Sudeste 15 Sur 0 1020.1 -- 72
2020-11-23 10:00:00 9.9 7 Sudeste 13 Sudeste 0 1020.1 -- 79
2020-11-23 09:00:00 8.4 6 Sudeste 14 Sur 0 1019.7 -- 85
2020-11-23 08:00:00 8.2 8 Sudeste 13 Sudeste 0 1019.5 -- 86
2020-11-23 07:00:00 7.9 4 Sudeste 11 Sudeste 0 1019.4 -- 90
2020-11-23 06:00:00 8 2 Sudeste 10 Sudeste 0 1019.4 -- 91
2020-11-23 05:00:00 8.4 4 Sudeste 13 Sudeste 0 1019.5 -- 92
2020-11-23 04:00:00 9 4 Sudeste 10 Sudeste 0 1020 -- 91
2020-11-23 03:00:00 9.5 7 Sudeste 11 Sudeste 0 1020.1 -- 94
2020-11-23 02:00:00 9.7 3 Sudeste 5 Sudeste 0 1020.6 -- 93
2020-11-23 01:00:00 10.5 5 Sudeste 7 Sudeste 0 1020.8 -- 91
2020-11-23 00:00:00 11.2 3 Sudeste 7 Este 0 1021.1 -- 91
2020-11-22 23:00:00 11.2 0 Calma 11 Sur 0 1021.2 -- 90
2020-11-22 22:00:00 11.7 0 Calma 4 Sur 0 1021 -- 92
2020-11-22 21:00:00 11.9 0 Calma 2 Noroeste 0 1021 -- 90
2020-11-22 20:00:00 12.2 0 Calma 2 Norte 0 1020.8 -- 88
2020-11-22 19:00:00 12.7 0 Calma 2 Sudeste 0 1020.3 -- 83
2020-11-22 18:00:00 13.4 0 Calma 4 Norte 0 1019.8 -- 82
2020-11-22 17:00:00 14 4 Norte 11 Norte 0 1019.6 -- 83
2020-11-22 16:00:00 14.6 6 Noroeste 10 Norte 0 1019.5 -- 73
2020-11-22 15:00:00 16 5 Norte 11 Noroeste 0 1019.5 -- 64
2020-11-22 14:00:00 16.9 6 Noroeste 13 Norte 0 1019.8 -- 64
2020-11-22 13:00:00 17.5 4 Norte 6 Sudeste 0 1020.1 -- 58
2020-11-22 12:00:00 16.6 4 Sudeste 6 Sudeste 0 1020.3 -- 62
2020-11-22 11:00:00 14.3 3 Sudeste 5 Sur 0 1020.4 -- 70
2020-11-22 10:00:00 10.7 0 Calma 4 Sur 0 1020.1 -- 87
2020-11-22 09:00:00 9.5 4 Sur 6 Sur 0 1019.6 -- 88
2020-11-22 08:00:00 10.3 5 Sur 12 Sur 0 1019.1 -- 89
2020-11-22 07:00:00 10.2 4 Sur 8 Sur 0 1019 -- 91
2020-11-22 06:00:00 11.1 3 Sur 14 Sur 0 1018.6 -- 88
2020-11-22 05:00:00 11.7 9 Sur 14 Sur 0 1018.4 -- 87
2020-11-22 04:00:00 11.8 9 Sur 13 Sur 0 1018.4 -- 88
2020-11-22 03:00:00 11.5 8 Sur 10 Sur 0 1017.9 -- 93
2020-11-22 02:00:00 11.6 2 Sudeste 9 Oeste 0 1017.8 -- 93
2020-11-22 01:00:00 11.6 3 Oeste 8 Sur 0 1017.9 -- 92
2020-11-22 00:00:00 12.1 2 Sur 9 Sudeste 0 1017.7 -- 90
2020-11-21 23:00:00 12.5 4 Sudeste 9 Sur 0 1017.6 -- 89
2020-11-21 22:00:00 13.1 4 Sur 7 Sur 0 1017.7 -- 86
2020-11-21 21:00:00 13.4 2 Este 7 Sudeste 0 1017.6 -- 83
2020-11-21 20:00:00 13.8 5 Sudeste 9 Sudoeste 0 1017.5 -- 79
2020-11-21 19:00:00 14.3 5 Sudoeste 11 Sudoeste 0 1017.4 -- 76
2020-11-21 18:00:00 15.6 6 Oeste 10 Oeste 0 1017 -- 62
2020-11-21 17:00:00 15.8 4 Oeste 15 Norte 0 1016.9 -- 69
2020-11-21 16:00:00 17.7 5 Noroeste 9 Nordeste 0 1016.8 -- 63
2020-11-21 15:00:00 18.9 6 Este 8 Nordeste 0 1017.2 -- 58
2020-11-21 14:00:00 18.5 4 Nordeste 9 Este 0 1017.9 -- 57
2020-11-21 13:00:00 17.5 5 Este 13 Este 0 1018.6 -- 60
2020-11-21 12:00:00 15.4 9 Sudeste 16 Sudeste 0 1019.3 -- 65
2020-11-21 11:00:00 13.5 7 Sudeste 20 Sudeste 0 1019.4 -- 66
2020-11-21 10:00:00 11.4 14 Sudeste 21 Sudeste 0 1019.6 -- 74
2020-11-21 09:00:00 9.7 4 Sudeste 15 Este 0 1019.4 -- 80
2020-11-21 08:00:00 9.8 9 Sudeste 23 Sudeste 0 1019.3 -- 79
2020-11-21 07:00:00 10 11 Sudeste 21 Sudeste 0 1019.4 -- 79
2020-11-21 06:00:00 10.2 6 Sudeste 13 Sudeste 0 1019.5 -- 78
2020-11-21 05:00:00 10.3 3 Sudeste 12 Sudeste 0 1019.7 -- 79
2020-11-21 04:00:00 10.7 6 Sudeste 11 Sudeste 0 1020.3 -- 78
2020-11-21 03:00:00 11.1 9 Sudeste 14 Sudeste 0 1020.4 -- 75
2020-11-21 02:00:00 10.9 3 Sudeste 5 Sur 0 1020.9 -- 81
2020-11-21 01:00:00 11.2 4 Este 7 Este 0 1021.5 -- 81
2020-11-21 00:00:00 11.6 0 Calma 7 Sudeste 0 1021.8 -- 81
2020-11-20 23:00:00 12.2 5 Sudeste 9 Sudeste 0 1022.1 -- 78
2020-11-20 22:00:00 12.7 6 Este 16 Este 0 1022.4 -- 79
2020-11-20 21:00:00 12.9 8 Este 23 Este 0 1022.5 -- 75
2020-11-20 20:00:00 13.3 11 Este 27 Este 0 1022.9 -- 75
2020-11-20 19:00:00 13.8 15 Este 32 Nordeste 0 1022.9 -- 74
2020-11-20 18:00:00 14.6 17 Nordeste 32 Nordeste 0 1022.6 -- 69
2020-11-20 17:00:00 15.4 14 Nordeste 28 Este 0 1022.3 -- 65
2020-11-20 16:00:00 16 13 Nordeste 22 Nordeste 0 1022.6 -- 63
2020-11-20 15:00:00 17 8 Nordeste 16 Este 0 1023.1 -- 61
2020-11-20 14:00:00 16.5 7 Nordeste 15 Este 0 1024.1 -- 60
2020-11-20 13:00:00 15.7 7 Nordeste 11 Este 0 1025.4 -- 62
2020-11-20 12:00:00 14.9 5 Este 9 Nordeste 0 1026.2 -- 65
2020-11-20 11:00:00 13.7 5 Nordeste 11 Este 0 1026.2 -- 72
2020-11-20 10:00:00 11.6 6 Este 10 Este 0 1026.5 -- 83
2020-11-20 09:00:00 10.2 4 Este 6 Este 0 1026.4 -- 90
2020-11-20 08:00:00 10.5 6 Este 13 Este 0 1026.5 -- 87
2020-11-20 07:00:00 10.5 8 Este 14 Este 0 1027 -- 88
2020-11-20 06:00:00 11.3 11 Este 15 Este 0 1027 -- 87
2020-11-20 05:00:00 12 10 Este 21 Nordeste 0 1027.4 -- 84
2020-11-20 04:00:00 12.3 15 Nordeste 23 Nordeste 0 1027.9 -- 80
2020-11-20 03:00:00 12.1 15 Nordeste 23 Este 0 1028 -- 81
2020-11-20 02:00:00 12.3 14 Nordeste 24 Nordeste 0 1028.4 -- 81
2020-11-20 01:00:00 12.4 16 Nordeste 29 Nordeste 0 1029 -- 80
2020-11-20 00:00:00 12.6 18 Nordeste 27 Nordeste 0 1029.4 -- 79
2020-11-19 23:00:00 12.9 15 Nordeste 30 Este 0 1029.5 -- 78
2020-11-19 22:00:00 12.7 20 Este 33 Nordeste 0 1029.4 -- 79
2020-11-19 21:00:00 12.4 19 Nordeste 29 Nordeste 0 1029.2 -- 81
2020-11-19 20:00:00 12.6 20 Nordeste 30 Nordeste 0 1028.9 -- 81
2020-11-19 19:00:00 13 20 Nordeste 40 Este 0 1029 -- 81
2020-11-19 18:00:00 13.6 24 Nordeste 40 Nordeste 0 1029 -- 78
2020-11-19 17:00:00 13.8 23 Nordeste 43 Este 0 1028.5 -- 79
2020-11-19 16:00:00 14.9 24 Nordeste 40 Nordeste 0 1028.5 -- 76
2020-11-19 15:00:00 15.8 15 Nordeste 28 Nordeste 0 1028 -- 75
2020-11-19 14:00:00 15.5 17 Nordeste 31 Este 0 1028.1 -- 76
2020-11-19 13:00:00 15.1 17 Nordeste 30 Nordeste 0 1029 -- 77
2020-11-19 12:00:00 14.6 19 Nordeste 28 Nordeste 0 1028.8 -- 78
2020-11-19 11:00:00 14.2 14 Nordeste 24 Nordeste 0 1028.9 -- 79
2020-11-19 10:00:00 13.2 15 Nordeste 32 Este 0 1028.1 -- 84
2020-11-19 09:00:00 12.7 21 Nordeste 38 Este 0 1027.8 -- 86
2020-11-19 08:00:00 12.8 21 Nordeste 33 Nordeste 0 1027.4 -- 84
2020-11-19 07:00:00 13.2 14 Nordeste 34 Nordeste 0 1027.3 -- 85
2020-11-19 06:00:00 13.2 18 Nordeste 33 Nordeste 0 1026.4 -- 85
2020-11-19 05:00:00 13.2 16 Nordeste 32 Nordeste 0 1026.1 -- 87
2020-11-19 04:00:00 13.1 15 Nordeste 27 Nordeste 0 1025.5 -- 90
2020-11-19 03:00:00 12.9 15 Nordeste 37 Nordeste 0 1024.9 -- 92
2020-11-19 02:00:00 12.9 13 Norte 37 Nordeste 0 1024.4 -- 96
2020-11-19 01:00:00 13.1 24 Nordeste 39 Nordeste 0 1024.6 -- 97
2020-11-19 00:00:00 13.7 18 Norte 37 Nordeste 0 1024.2 -- 97
2020-11-18 23:00:00 13.9 19 Norte 49 Norte 0 1023.4 -- 98
2020-11-18 22:00:00 15.4 9 Noroeste 19 Norte 0.2 1021.7 -- 96
2020-11-18 21:00:00 15.9 4 Nordeste 23 Noroeste 2.8 1021.1 -- 94
2020-11-18 20:00:00 17.1 6 Oeste 17 Sudoeste 0 1020.7 -- 83
2020-11-18 19:00:00 17.1 10 Sudoeste 34 Sudoeste 1 1019 -- 84
2020-11-18 18:00:00 18.5 21 Oeste 37 Oeste 4 1018.8 -- 84
2020-11-18 17:00:00 19.8 5 Sudoeste 38 Sur 0 1017 -- 76
2020-11-18 16:00:00 20.2 9 Sudoeste 34 Sur 0 1015.8 -- 75
2020-11-18 15:00:00 21.5 15 Sudoeste 37 Sur 0 1016.2 -- 70
2020-11-18 14:00:00 21.7 15 Sur 36 Sudoeste 0 1015.7 -- 71
2020-11-18 13:00:00 21.7 14 Sudoeste 33 Sudoeste 0 1016 -- 71
2020-11-18 12:00:00 21.5 13 Sudoeste 33 Sur 0 1015.9 -- 72
2020-11-18 11:00:00 19.9 15 Sur 32 Sur 0 1015.5 -- 78
2020-11-18 10:00:00 18.1 6 Sudeste 23 Sudeste 0 1015 -- 87
2020-11-18 09:00:00 17.5 8 Sudeste 31 Sur 0.4 1014.1 -- 88
2020-11-18 08:00:00 17.8 17 Sur 31 Sur 0 1013.5 -- 85
2020-11-18 07:00:00 17.8 12 Sudoeste 28 Sudoeste 0 1013.6 -- 83
2020-11-18 06:00:00 18.3 9 Sur 23 Sudoeste 0 1013.2 -- 81
2020-11-18 05:00:00 18.1 5 Sur 18 Sur 0 1013.1 -- 83
2020-11-18 04:00:00 17.9 8 Sudoeste 45 Sur 0 1013 -- 84
2020-11-18 03:00:00 17.8 21 Sur 42 Sur 0 1012.1 -- 83
2020-11-18 02:00:00 17.7 23 Sur 46 Sur 0 1012.3 -- 81
2020-11-18 01:00:00 17.7 12 Sur 36 Sudoeste 0 1012.5 -0.4 77
2020-11-18 00:00:00 17.8 17 Sur 45 Sur 0 1012.5 -- 77
2020-11-17 23:00:00 17.3 13 Sur 38 Sur 0 1012.7 -- 79
2020-11-17 22:00:00 16.6 13 Sudeste 29 Sudeste 0 1012.9 -- 81
2020-11-17 21:00:00 17 13 Sur 27 Sur 0 1013.8 -- 79
2020-11-17 20:00:00 16.9 13 Sur 30 Sur 0 1013.9 -- 78
2020-11-17 19:00:00 17.4 8 Sur 19 Sudoeste 0 1013.6 -- 70
2020-11-17 18:00:00 17.2 3 Noroeste 6 Nordeste 0 1013.6 -- 76
2020-11-17 17:00:00 18.5 3 Nordeste 24 Sur 0 1013.5 -- 67
2020-11-17 16:00:00 20.4 11 Sur 25 Sur 0 1013.5 -- 52
2020-11-17 15:00:00 21.6 10 Sur 24 Sur 0 1013.9 -- 50
2020-11-17 14:00:00 20.7 10 Sur 32 Sur 0 1014.1 -- 50
2020-11-17 13:00:00 19.2 6 Sudeste 15 Sudeste 0 1014.9 -- 59
2020-11-17 12:00:00 17.4 7 Sudeste 14 Sudeste 0 1015.7 -- 59
2020-11-17 11:00:00 15.3 4 Sudeste 10 Sudeste 0 1016 -- 66
2020-11-17 10:00:00 12.5 2 Sudeste 10 Sur 0 1015.9 -- 80
2020-11-17 09:00:00 11 4 Sur 12 Sudoeste 0 1015.6 -- 84
2020-11-17 08:00:00 10.7 7 Sur 13 Sur 0 1015.3 -- 85
2020-11-17 07:00:00 9.9 6 Sur 11 Sur 0 1015.5 -- 89
2020-11-17 06:00:00 10 6 Sudeste 12 Sudeste 0 1015.6 -- 90
2020-11-17 05:00:00 10.2 5 Sudeste 17 Sur 0 1015.8 -- 88
2020-11-17 04:00:00 9.9 5 Sudeste 13 Sur 0 1016.3 -- 89
2020-11-17 03:00:00 9.9 6 Sur 11 Sur 0 1016.7 -- 90
2020-11-17 02:00:00 10 3 Sur 5 Sudoeste 0 1017.3 -- 91
2020-11-17 01:00:00 10.6 0 Calma 9 Sur 0 1017.9 -- 89
2020-11-17 00:00:00 11.2 5 Sur 7 Sur 0 1018 -- 86
2020-11-16 23:00:00 11.6 2 Sudeste 5 Sudeste 0 1018.2 -- 85
2020-11-16 22:00:00 12.2 2 Este 4 Nordeste 0 1018.4 -- 86
2020-11-16 21:00:00 12.6 2 Oeste 4 Norte 0 1018.1 -- 85
2020-11-16 20:00:00 12.9 2 Nordeste 5 Noroeste 0 1018 -- 80
2020-11-16 19:00:00 13.3 3 Noroeste 5 Norte 0 1017.9 -- 78
2020-11-16 18:00:00 14 5 Norte 10 Norte 0 1017.7 -- 75
2020-11-16 17:00:00 14.5 5 Norte 11 Norte 0 1017.6 -- 70
2020-11-16 16:00:00 15.2 8 Norte 12 Noroeste 0 1017.7 -- 65
2020-11-16 15:00:00 16.3 6 Norte 12 Este 0 1017.5 -- 60
2020-11-16 14:00:00 16.8 5 Norte 10 Nordeste 0 1018 -- 66
2020-11-16 13:00:00 16.1 4 Sur 9 Sudoeste 0 1018.4 -- 61
2020-11-16 12:00:00 14.9 5 Sudoeste 8 Sudoeste 0 1018.8 -- 69
2020-11-16 11:00:00 13.7 2 Sur 8 Sudeste 0 1018.4 -- 80
2020-11-16 10:00:00 13 3 Sur 8 Sur 0 1018.1 -- 84
2020-11-16 09:00:00 12.2 5 Sudeste 8 Sudeste 0 1017.8 -- 87
2020-11-16 08:00:00 12.3 0 Calma 7 Sudeste 0 1017.4 -- 87
2020-11-16 07:00:00 13 0 Calma 6 Sudeste 0 1016.7 -- 84
2020-11-16 06:00:00 13.1 5 Oeste 14 Sur 0 1017 -- 83
2020-11-16 05:00:00 13 11 Sur 13 Sur 0 1016.4 -- 84
2020-11-16 04:00:00 12.9 3 Sudeste 5 Sudeste 0 1016.7 -- 88
2020-11-16 03:00:00 13.1 0 Calma 9 Sur 0 1016.3 -- 85
2020-11-16 02:00:00 13.1 5 Sudoeste 11 Oeste 0 1016.3 -- 83
2020-11-16 01:00:00 13.3 6 Sudoeste 12 Sudoeste 0 1015.6 -- 83
2020-11-16 00:00:00 13.3 8 Sudoeste 11 Sudoeste 0 1015.6 -- 82
2020-11-15 23:00:00 13.6 4 Sudoeste 13 Oeste 0 1015.2 -- 82
2020-11-15 22:00:00 13.9 8 Oeste 17 Noroeste 0 1015.2 -- 83
2020-11-15 21:00:00 14 8 Sudoeste 13 Sudoeste 0 1014.2 -- 83
2020-11-15 20:00:00 14 9 Sudoeste 14 Sudoeste 0 1013.3 -- 83
2020-11-15 19:00:00 13.9 10 Sudoeste 17 Sudoeste 0 1012.5 -- 84
2020-11-15 18:00:00 14.1 10 Sudoeste 18 Sudoeste 0 1011.9 -- 87
2020-11-15 17:00:00 14 7 Oeste 32 Noroeste 0 1011.3 -- 89
2020-11-15 16:00:00 14.4 10 Oeste 31 Oeste 0 1010.9 -- 89
2020-11-15 15:00:00 15.2 16 Oeste 36 Oeste 0 1009.8 -- 90
2020-11-15 14:00:00 14.7 16 Oeste 42 Oeste 1.4 1008.8 -- 95
2020-11-15 13:00:00 16.1 17 Oeste 34 Sudoeste 0 1008.7 -- 86
2020-11-15 12:00:00 15.3 17 Sudoeste 44 Sudoeste 0 1008.3 -- 86
2020-11-15 11:00:00 14.2 21 Sudoeste 49 Sudoeste 0.8 1007.8 -- 94
2020-11-15 10:00:00 14.5 24 Oeste 42 Sudoeste 3.2 1006.8 -- 96
2020-11-15 09:00:00 15.5 19 Oeste 45 Sudoeste 2.2 1006 -- 93
2020-11-15 08:00:00 17.4 26 Sudoeste 59 Sudoeste 0.4 1004.7 -- 84
2020-11-15 07:00:00 18.6 21 Sudoeste 55 Oeste 0 1003.9 -- 75
2020-11-15 06:00:00 18.8 23 Sudoeste 56 Sudoeste 0 1003.5 -- 81
2020-11-15 05:00:00 18.8 19 Sudoeste 46 Sudoeste 0 1003.5 -- 83
2020-11-15 04:00:00 18.7 20 Sudoeste 41 Oeste 0 1003.8 -- 82
2020-11-15 03:00:00 18.5 24 Sudoeste 45 Sudoeste 0 1004 -- 82
2020-11-15 02:00:00 18.5 20 Sudoeste 46 Sudoeste 0 1004.3 -- 81
2020-11-15 01:00:00 17.6 17 Sudoeste 31 Sudoeste 0 1005 -- 84
2020-11-15 00:00:00 17.4 13 Sudoeste 31 Sudoeste 0 1005.5 -- 83
2020-11-14 23:00:00 17.2 19 Sudoeste 35 Sudoeste 0 1005.7 -- 84
2020-11-14 22:00:00 17.1 20 Sudoeste 40 Sudoeste 0 1006.6 -- 78
2020-11-14 21:00:00 16.6 19 Sudoeste 39 Sudoeste 0 1005.9 -- 76
2020-11-14 20:00:00 16.4 10 Sudoeste 37 Sudoeste 0 1006 -- 82
2020-11-14 19:00:00 16.6 17 Sudoeste 43 Sudoeste 0.2 1005.8 -- 86
2020-11-14 18:00:00 18.5 17 Sudoeste 42 Sudoeste 0 1005.6 -- 77
2020-11-14 17:00:00 18.9 17 Sudoeste 51 Sur 0 1004.9 -- 76
2020-11-14 16:00:00 18.8 13 Sur 40 Sudoeste 0 1004.8 -- 78
2020-11-14 15:00:00 18.6 19 Sur 48 Sur 0 1004.8 -- 78
2020-11-14 14:00:00 18.2 22 Sur 49 Sur 0 1005 -- 78
2020-11-14 13:00:00 17.9 18 Sur 45 Sudoeste 0 1005.5 -- 76
2020-11-14 12:00:00 18.5 18 Sur 52 Sur 0 1006 -- 71
2020-11-14 11:00:00 17.7 25 Sur 53 Sur 0 1006 -- 72
2020-11-14 10:00:00 16.9 17 Sur 37 Sur 0 1006.2 -- 74
2020-11-14 09:00:00 16.6 15 Sur 36 Sur 0 1005.9 -- 76
2020-11-14 08:00:00 16.3 18 Sur 39 Sur 0 1005.4 -- 76
2020-11-14 07:00:00 16.6 16 Sur 46 Sur 0 1005.6 -- 74
2020-11-14 06:00:00 16.4 14 Sur 33 Sur 0 1005.2 -- 75
2020-11-14 05:00:00 16.3 15 Sur 43 Sur 0 1005.8 -- 74
2020-11-14 04:00:00 16 19 Sur 33 Sur 0 1006.4 -- 76
2020-11-14 03:00:00 16.2 11 Sur 31 Sur 0 1006.7 -- 75
2020-11-14 02:00:00 15.7 14 Sur 32 Sur 0 1006.9 -- 77
2020-11-14 01:00:00 15.6 8 Sur 32 Sudeste 0 1007.9 -- 78
2020-11-14 00:00:00 15.5 9 Sur 27 Sur 0 1008.5 -- 79
2020-11-13 23:00:00 15.7 8 Sur 21 Sur 0 1008.8 -- 79
2020-11-13 22:00:00 15.9 9 Sur 26 Sur 0 1008.4 -- 77
2020-11-13 21:00:00 15.9 7 Sudeste 20 Sur 0 1008.6 -- 75
2020-11-13 20:00:00 16.3 6 Sur 18 Sur 0 1008.7 -- 73
2020-11-13 19:00:00 17.1 7 Sur 19 Sur 0 1008.5 -- 70
2020-11-13 18:00:00 18.1 10 Sur 21 Sur 0 1008.5 -- 67
2020-11-13 17:00:00 18.9 9 Sur 27 Sudoeste 0 1008.5 -- 63
2020-11-13 16:00:00 19.6 16 Sur 32 Sudoeste 0 1008.7 -- 60
2020-11-13 15:00:00 20.4 13 Sur 32 Sur 0 1008.9 -- 57
2020-11-13 14:00:00 20.3 16 Sudoeste 35 Sudoeste 0 1009.3 -- 56
2020-11-13 13:00:00 19.5 12 Sur 23 Sur 0 1010.1 -- 60
2020-11-13 12:00:00 18.8 10 Sur 22 Sur 0 1010.6 -- 61
2020-11-13 11:00:00 17.8 12 Sur 26 Sur 0 1010.5 -- 64
2020-11-13 10:00:00 16.2 13 Sur 26 Sur 0 1010.3 -- 69
2020-11-13 09:00:00 14.9 13 Sur 25 Sur 0 1009.6 -- 73
2020-11-13 08:00:00 13.8 6 Sur 17 Sur 0 1009.2 -- 80
2020-11-13 07:00:00 13.3 3 Noroeste 19 Sudeste 0 1009.4 -- 85
2020-11-13 06:00:00 13.5 9 Sudeste 17 Sudeste 0 1009.3 -- 82
2020-11-13 05:00:00 13.8 8 Sudeste 14 Sudeste 0 1009.5 -- 82
2020-11-13 04:00:00 14 10 Sudeste 14 Sudeste 0 1010.1 -- 81
2020-11-13 03:00:00 14.2 6 Sudeste 8 Sudeste 0 1010.1 -- 80
2020-11-13 02:00:00 15 6 Sudeste 11 Sudeste 0 1010.2 -- 75
2020-11-13 01:00:00 15.4 8 Sur 12 Sur 0 1010.2 -- 74
2020-11-13 00:00:00 16.2 6 Sur 22 Sur 0 1010.4 -- 72
2020-11-12 23:00:00 16.3 9 Sur 19 Sur 0 1010.2 -- 73
2020-11-12 22:00:00 16.4 8 Sur 26 Sur 0 1010.1 -- 73
2020-11-12 21:00:00 16.9 9 Sur 18 Sur 0 1010 -- 71
2020-11-12 20:00:00 17.1 9 Sudeste 15 Sur 0 1010 -- 70
2020-11-12 19:00:00 17.6 7 Sur 18 Sur 0 1009.8 -- 66
2020-11-12 18:00:00 18.3 8 Sur 22 Sur 0 1009.9 -- 61
2020-11-12 17:00:00 19.1 15 Sudoeste 27 Sudoeste 0 1009.8 -- 59
2020-11-12 16:00:00 19.9 9 Sur 26 Sur 0 1009.7 -- 57
2020-11-12 15:00:00 20.8 12 Sur 25 Sudeste 0 1010 -- 54
2020-11-12 14:00:00 20.5 13 Sur 30 Sur 0 1010.8 -- 52
2020-11-12 13:00:00 19.7 13 Sur 31 Sudoeste 0 1011.5 -- 55
2020-11-12 12:00:00 17.4 5 Sudeste 25 Sur 0 1012.3 -- 68
2020-11-12 11:00:00 16.6 8 Sur 26 Sudoeste 0 1012.3 -- 69
2020-11-12 10:00:00 14.9 9 Sur 26 Sur 0 1012.4 -- 73
2020-11-12 09:00:00 13.6 9 Sur 19 Sur 0 1012.4 -- 90
2020-11-12 08:00:00 13.3 0 Calma 7 Noroeste 0.2 1012.2 -- 100
2020-11-12 07:00:00 13 3 Noroeste 6 Norte 0 1012.1 -- 100
2020-11-12 06:00:00 12.7 5 Norte 8 Norte 0 1012.1 -- 100
2020-11-12 05:00:00 12.6 4 Norte 8 Norte 0.4 1012.2 -- 100
2020-11-12 04:00:00 12.5 3 Norte 7 Norte 0.4 1012.6 -- 99
2020-11-12 03:00:00 12.5 0 Calma 9 Oeste 0.6 1013.1 -- 99
2020-11-12 02:00:00 12.5 6 Noroeste 15 Norte 1.4 1013.4 -- 99
2020-11-12 01:00:00 13 7 Noroeste 13 Oeste 1.8 1013.5 -- 98
2020-11-12 00:00:00 13.4 7 Norte 12 Noroeste 1.6 1013.4 -- 97
2020-11-11 23:00:00 14.2 4 Oeste 19 Sur 0.4 1013.1 -- 93
2020-11-11 22:00:00 15 12 Sudoeste 41 Sur 0 1012.5 -- 81
2020-11-11 21:00:00 14.8 22 Sur 46 Sur 0 1011.6 -- 80
2020-11-11 20:00:00 14.9 19 Sur 49 Sur 0 1011.2 -- 79
2020-11-11 19:00:00 15.3 21 Sur 52 Sudoeste 0 1010.7 -- 74
2020-11-11 18:00:00 15.9 21 Sudoeste 40 Sudoeste 0 1010.6 -- 63
2020-11-11 17:00:00 16.1 18 Sudoeste 48 Sudoeste 0 1011.2 -- 63
2020-11-11 16:00:00 16.6 19 Sudoeste 43 Sur 0 1010.5 -- 62
2020-11-11 15:00:00 17.2 21 Sur 50 Sur 0 1010.5 -- 63
2020-11-11 14:00:00 17.1 19 Sur 48 Sur 0 1010.4 -- 65
2020-11-11 13:00:00 16.3 15 Sur 50 Sur 0 1010.9 -- 69
2020-11-11 12:00:00 15.5 26 Sur 46 Sur 0 1011.5 -- 71
2020-11-11 11:00:00 14.5 18 Sur 37 Sur 0 1012.2 -- 72
2020-11-11 10:00:00 13.7 14 Sur 34 Sur 0 1012.5 -- 75
2020-11-11 09:00:00 12.7 13 Sudeste 22 Sudeste 0 1012.3 -- 79
2020-11-11 08:00:00 11.6 11 Sudeste 19 Sudeste 0 1012.2 -- 84
2020-11-11 07:00:00 11.8 12 Sudeste 19 Sudeste 0 1012.8 -- 82
2020-11-11 06:00:00 12.1 13 Sudeste 28 Sudeste 0 1013.5 -- 79
2020-11-11 05:00:00 12.2 12 Sudeste 27 Sur 0 1014 -- 79
2020-11-11 04:00:00 12.5 15 Sudeste 27 Sur 0 1014.5 -- 77
2020-11-11 03:00:00 12.7 17 Sur 24 Sur 0 1015.4 -- 78
2020-11-11 02:00:00 13.2 12 Sur 22 Sur 0 1015.7 -- 78
2020-11-11 01:00:00 13 9 Sur 15 Sur 0 1016.2 -- 81
2020-11-11 00:00:00 12.5 5 Sur 12 Sur 0 1016.5 -- 84
2020-11-10 23:00:00 13.1 6 Sudeste 10 Sudeste 0 1017 -- 83
2020-11-10 22:00:00 13.6 4 Sudeste 8 Sur 0 1017.3 -- 81
2020-11-10 21:00:00 14.3 5 Sur 8 Sudeste 0 1017.5 -- 78
2020-11-10 20:00:00 14.6 4 Sudoeste 9 Oeste 0 1017.7 -- 75
2020-11-10 19:00:00 15.8 5 Sudoeste 13 Sur 0 1017.5 -- 71
2020-11-10 18:00:00 16.9 8 Sur 17 Sur 0 1017.3 -- 65
2020-11-10 17:00:00 17.5 8 Sudeste 15 Sudeste 0 1017.8 -- 63
2020-11-10 16:00:00 17.4 4 Oeste 12 Sudeste 0 1017.9 -- 64
2020-11-10 15:00:00 17.5 8 Sudeste 18 Sur 0 1018.2 -- 62
2020-11-10 14:00:00 17.9 8 Sudeste 21 Sur 0 1018.7 -- 60
2020-11-10 13:00:00 17.7 10 Sudeste 22 Sudeste 0 1019 -- 61
2020-11-10 12:00:00 17 9 Sudeste 21 Sudeste 0 1019.8 -- 63
2020-11-10 11:00:00 16.1 10 Sudeste 15 Sudeste 0 1019.6 -- 68
2020-11-10 10:00:00 14.4 6 Sudeste 15 Sur 0 1019.7 -- 78
2020-11-10 09:00:00 13.4 11 Sudeste 15 Sudeste 0 1019.1 -- 83
2020-11-10 08:00:00 13.8 8 Sur 14 Sur 0 1018.8 -- 79
2020-11-10 07:00:00 13.8 8 Sudoeste 12 Sudoeste 0 1018.9 -- 81
2020-11-10 06:00:00 13.6 6 Sudoeste 12 Sudoeste 0 1018.7 -- 82
2020-11-10 05:00:00 13.6 6 Sudoeste 10 Sudoeste 0 1018.4 -- 82
2020-11-10 04:00:00 13.6 4 Sur 9 Sur 0 1018.2 -- 81
2020-11-10 03:00:00 13.7 3 Sur 9 Sudoeste 0 1018.5 -- 80
2020-11-10 02:00:00 13.7 6 Oeste 13 Oeste 0 1018.8 -- 89
2020-11-10 01:00:00 13.8 8 Sudoeste 11 Sudoeste 0 1018.5 -- 79
2020-11-10 00:00:00 13.7 10 Sudoeste 17 Sudoeste 0 1018.2 -- 81
2020-11-09 23:00:00 13.4 9 Sudoeste 13 Sudoeste 0 1018.1 -- 84
2020-11-09 22:00:00 13.6 8 Sudoeste 14 Sudoeste 0 1017.9 -- 86
2020-11-09 21:00:00 13.8 8 Sudoeste 14 Sudoeste 0 1017.5 -- 87
2020-11-09 20:00:00 14.1 12 Sudoeste 20 Sudoeste 0 1017.1 -- 85
2020-11-09 19:00:00 14.4 12 Oeste 18 Oeste 0 1016.3 -- 88
2020-11-09 18:00:00 15 8 Oeste 23 Oeste 0 1015.7 -- 86
2020-11-09 17:00:00 15.4 14 Oeste 29 Sudoeste 0 1015.4 -- 83
2020-11-09 16:00:00 15.9 18 Oeste 32 Oeste 0 1014.7 -- 83
2020-11-09 15:00:00 16.1 15 Oeste 30 Sudoeste 0 1014.2 -- 83
2020-11-09 14:00:00 15.6 15 Oeste 28 Oeste 0 1013.9 -- 87
2020-11-09 13:00:00 15.1 14 Oeste 34 Oeste 1 1013.8 -- 88
2020-11-09 12:00:00 15.9 13 Oeste 26 Sudoeste 0 1013.6 -- 82
2020-11-09 11:00:00 15.3 10 Sudoeste 21 Sudoeste 0.2 1013 -- 85
2020-11-09 10:00:00 14.5 6 Sur 14 Sur 0 1012.5 -- 85
2020-11-09 09:00:00 13.5 7 Sur 12 Sur 0 1011.5 -- 88
2020-11-09 08:00:00 13.3 6 Sudeste 12 Sudeste 0 1010.6 -- 89
2020-11-09 07:00:00 13.6 4 Sur 17 Sudoeste 0 1010.1 -- 87
2020-11-09 06:00:00 14.1 12 Sudoeste 22 Sudoeste 0 1009.7 -- 86
2020-11-09 05:00:00 14.3 6 Sur 13 Sur 0 1009.1 -- 87
2020-11-09 04:00:00 14.7 5 Sur 9 Sur 0 1009 -- 86
2020-11-09 03:00:00 14.7 4 Sur 15 Sur 0 1008.7 -- 85
2020-11-09 02:00:00 14.9 8 Sur 34 Sudoeste 0 1008.3 -- 85
2020-11-09 01:00:00 15.3 17 Sudoeste 31 Sudoeste 1.2 1008.2 -- 85
2020-11-09 00:00:00 15.7 13 Sudoeste 27 Sur 0 1007.6 -- 81
2020-11-08 23:00:00 15.6 9 Sur 23 Sur 0 1007.2 -- 81
2020-11-08 22:00:00 15.2 9 Sur 22 Sur 0 1007.2 -- 84
2020-11-08 21:00:00 15.4 6 Sur 23 Sur 0 1007.2 -- 82
2020-11-08 20:00:00 15.4 10 Sur 24 Sur 0 1006.9 -- 80
2020-11-08 19:00:00 15.7 9 Sur 21 Sur 0 1006.5 -- 78
2020-11-08 18:00:00 16.5 10 Sur 28 Sur 0 1006.1 -- 74
2020-11-08 17:00:00 16.7 10 Sudoeste 34 Sudoeste 0 1005.5 -- 81
2020-11-08 16:00:00 17.7 17 Sudoeste 37 Sur 0 1005.2 -- 73
2020-11-08 15:00:00 16.6 14 Sur 31 Sudoeste 2.2 1004.9 -- 85
2020-11-08 14:00:00 18 16 Sudoeste 46 Sur 0 1005 -- 72
2020-11-08 13:00:00 19.5 20 Sur 42 Sudeste 0 1005 -- 69
2020-11-08 12:00:00 18.4 13 Sur 40 Sudeste 0 1005.7 -- 73
2020-11-08 11:00:00 16.8 11 Sudeste 28 Sur 0 1005.7 -- 80
2020-11-08 10:00:00 15 12 Sur 24 Sudeste 0.2 1005.8 -- 84
2020-11-08 09:00:00 14.2 11 Sudeste 23 Sudeste 0 1004.5 -- 83
2020-11-08 08:00:00 14 14 Sudeste 46 Sudeste 0.2 1004.6 -- 84
2020-11-08 07:00:00 15.3 26 Sur 56 Sur 1.8 1004.4 -- 79
2020-11-08 06:00:00 15.4 12 Sur 28 Sudeste 0.6 1005.6 -- 85
2020-11-08 05:00:00 15.3 15 Sudeste 28 Sur 0 1005 -- 83
2020-11-08 04:00:00 15.4 12 Sudeste 30 Sudeste 0 1005.8 -- 82
2020-11-08 03:00:00 15.3 11 Sudeste 27 Sudeste 0 1006.3 -- 84
2020-11-08 02:00:00 15.3 13 Sur 30 Sudeste 0 1006.9 -- 84
2020-11-08 01:00:00 16.1 14 Sur 30 Sur 0 1007 -- 81
2020-11-08 00:00:00 16.2 13 Sur 36 Sudeste 0 1007.1 -- 81
2020-11-07 23:00:00 16.3 10 Sur 28 Sur 0 1007.5 -- 82
2020-11-07 22:00:00 16 7 Sudeste 21 Sudeste 0 1007.3 -- 87
2020-11-07 21:00:00 16.1 9 Sudeste 23 Sur 0 1007.3 -- 86
2020-11-07 20:00:00 16.3 9 Sur 26 Sur 0 1007.1 -- 80
2020-11-07 19:00:00 16.4 9 Sur 25 Sur 0 1006.5 -- 81
2020-11-07 18:00:00 17.1 10 Sur 32 Sur 0 1006 -- 78
2020-11-07 17:00:00 17.1 13 Sur 44 Sur 0 1005.5 -- 82
2020-11-07 16:00:00 17.9 15 Sur 37 Sur 0 1004.9 -- 79
2020-11-07 15:00:00 18.2 19 Sur 49 Sur 0 1004.4 -- 75
2020-11-07 14:00:00 18 16 Sur 50 Sur 0 1004 -- 73
2020-11-07 13:00:00 17.8 24 Sur 63 Sur 0 1003.8 -- 70
2020-11-07 12:00:00 17 27 Sur 48 Sudeste 0 1003.6 -- 68
2020-11-07 11:00:00 16.8 19 Sudeste 50 Sur 0 1003.2 -- 68
2020-11-07 10:00:00 15.6 14 Sur 29 Sudeste 0 1002.7 -- 73
2020-11-07 09:00:00 14.3 12 Sudeste 30 Sudeste 0 1002.2 -- 78
2020-11-07 08:00:00 14.3 14 Sudeste 26 Sudeste 0 1001.9 -- 78
2020-11-07 07:00:00 13.1 6 Sudeste 16 Sur 0 1001.8 -- 86
2020-11-07 06:00:00 13.4 6 Este 15 Este 0 1001.5 -- 84
2020-11-07 05:00:00 14 11 Sudeste 24 Sudeste 0 1001.1 -- 81
2020-11-07 04:00:00 14 12 Sudeste 21 Sudeste 0 1001.1 -- 82
2020-11-07 03:00:00 14.1 8 Sudeste 18 Este 0 1001.3 -- 83
2020-11-07 02:00:00 14.4 9 Sudeste 16 Sudeste 0 1001.4 -- 84
2020-11-07 01:00:00 14.5 8 Sudeste 17 Sudeste 0 1001.5 -- 88
2020-11-07 00:00:00 14.5 9 Sudeste 15 Sudeste 0 1001.2 -- 89
2020-11-06 23:00:00 14.6 5 Sudeste 12 Este 0 1001.2 -- 89
2020-11-06 22:00:00 15 6 Este 11 Sur 0 1000.9 -- 89
2020-11-06 21:00:00 15.5 5 Sudeste 13 Sur 0.2 1000.8 -- 82
2020-11-06 20:00:00 15.2 3 Oeste 13 Sudoeste 0 1000.9 -- 87
2020-11-06 19:00:00 15.6 5 Sudeste 18 Sur 0.2 1000.3 -- 83
2020-11-06 18:00:00 15.7 6 Sudeste 14 Sur 0 999.9 -- 81
2020-11-06 17:00:00 15.8 6 Sur 33 Sudoeste 0.4 1000.5 -- 79
2020-11-06 16:00:00 16.6 13 Sudoeste 28 Sudoeste 0 1000.5 -- 71
2020-11-06 15:00:00 18.3 10 Sur 30 Sur 0 1001.4 -- 63
2020-11-06 14:00:00 18.9 13 Sudeste 37 Sudeste 0 1002.2 -- 63
2020-11-06 13:00:00 17.1 10 Sur 22 Sudeste 0 1002.9 -- 69
2020-11-06 12:00:00 16.8 9 Sudeste 23 Sudeste 0 1003.5 -0.7 68
2020-11-06 11:00:00 17 13 Sudeste 25 Sudeste 0 1003.4 -- 63
2020-11-06 10:00:00 16.5 13 Sudeste 24 Sudeste 0 1003.5 -- 64
2020-11-06 09:00:00 16 13 Sudeste 21 Sudeste 0 1004.2 -- 66
2020-11-06 08:00:00 15.8 10 Sudeste 26 Sudeste 0 1003.7 -- 66
2020-11-06 07:00:00 15.5 12 Sudeste 22 Sudeste 0 1003.8 -- 67
2020-11-06 06:00:00 15.2 12 Sudeste 21 Sudeste 0 1003.5 -- 69
2020-11-06 05:00:00 15.5 12 Sudeste 26 Sudeste 0 1003.5 -- 68
2020-11-06 04:00:00 15.9 13 Sudeste 29 Sudeste 0 1004 -- 66
2020-11-06 03:00:00 15.2 14 Sudeste 23 Sudeste 0 1004.9 -- 69
2020-11-06 02:00:00 14.3 7 Sudeste 11 Sudeste 0 1005.1 -- 73
2020-11-06 01:00:00 13.8 0 Calma 9 Nordeste 0 1005.5 -- 77
2020-11-06 00:00:00 14 5 Este 9 Sudeste 0 1005.8 -- 78
2020-11-05 23:00:00 13.9 3 Este 8 Este 0 1006.7 -- 79
2020-11-05 22:00:00 14.2 4 Este 12 Este 0 1007.1 -- 78
2020-11-05 21:00:00 14.2 5 Sudeste 13 Este 0 1007.4 -- 76
2020-11-05 20:00:00 14.1 7 Este 12 Este 0 1007.8 -- 78
2020-11-05 19:00:00 14.2 7 Este 10 Este 0 1008.4 -- 76
2020-11-05 18:00:00 14.4 7 Este 15 Nordeste 0 1008.5 -- 75
2020-11-05 17:00:00 14.5 14 Este 21 Este 0 1009 -- 74
2020-11-05 16:00:00 14.4 11 Este 26 Este 0 1009.2 -- 75
2020-11-05 15:00:00 14.1 20 Nordeste 39 Este 0 1009.3 -2.8 79
2020-11-05 14:00:00 14.4 23 Nordeste 43 Este 0 1010.3 -- 75
2020-11-05 13:00:00 14.7 26 Este 43 Este 0 1011.5 -- 70
2020-11-05 12:00:00 14.8 24 Este 45 Este 0 1012.1 -0.3 70
2020-11-05 11:00:00 15.3 23 Este 40 Este 0 1012.6 -- 68
2020-11-05 10:00:00 13.7 26 Este 49 Este 0 1012.8 -- 72
2020-11-05 09:00:00 13.1 26 Nordeste 45 Nordeste 0 1012.4 -- 73
2020-11-05 08:00:00 13 26 Este 43 Este 0 1012.4 -- 72
2020-11-05 07:00:00 13 26 Este 49 Este 0 1012.8 -- 71
2020-11-05 06:00:00 12.7 23 Este 37 Este 0 1013 -- 70
2020-11-05 05:00:00 12.6 24 Este 50 Nordeste 0 1012.7 -- 65
2020-11-05 04:00:00 12.7 25 Este 50 Nordeste 0 1013.3 -- 61
2020-11-05 03:00:00 12.7 27 Este 51 Este 0 1013.8 -- 65
2020-11-05 02:00:00 12.7 31 Este 64 Este 0 1014.2 -- 67
2020-11-05 01:00:00 12.7 39 Este 69 Este 0 1014 -- 64
2020-11-05 00:00:00 12.7 30 Este 59 Nordeste 0 1014.8 -- 63
2020-11-04 23:00:00 12.5 30 Este 57 Nordeste 0 1014.8 -- 64
2020-11-04 22:00:00 12 24 Este 50 Nordeste 0 1015.1 -- 68
2020-11-04 21:00:00 11.7 22 Este 44 Este 0 1015.3 -- 72
2020-11-04 20:00:00 11.4 22 Nordeste 54 Nordeste 0 1015.4 -- 71
2020-11-04 19:00:00 11.7 27 Nordeste 41 Este 0 1015.3 -- 72
2020-11-04 18:00:00 11.6 26 Nordeste 49 Este 0 1015.4 -- 72
2020-11-04 17:00:00 11.9 27 Nordeste 50 Este 0 1015.9 -- 68
2020-11-04 16:00:00 12.9 30 Nordeste 49 Nordeste 0 1015.8 -- 63
2020-11-04 15:00:00 13.4 27 Nordeste 42 Nordeste 0 1015.8 -- 62
2020-11-04 14:00:00 13 24 Nordeste 37 Este 0 1016.7 -- 68
2020-11-04 13:00:00 12.8 18 Nordeste 28 Nordeste 0 1017.7 -- 73
2020-11-04 12:00:00 11.7 10 Este 17 Este 0.2 1018.7 -- 82
2020-11-04 11:00:00 10.7 6 Este 16 Este 1 1019 -0.4 86
2020-11-04 10:00:00 9.5 6 Este 13 Sudeste 0 1019.5 -- 87
2020-11-04 09:00:00 9.1 6 Sudeste 12 Sudeste 0 1019.1 -- 89
2020-11-04 08:00:00 9 4 Sudeste 10 Sudeste 0 1019.4 -- 90
2020-11-04 07:00:00 9 4 Sur 17 Este 0 1019.5 -- 90
2020-11-04 06:00:00 9.4 3 Sur 12 Sur 0 1019.9 -- 87
2020-11-04 05:00:00 9.3 2 Sudeste 10 Sur 0 1020.8 -- 88
2020-11-04 04:00:00 9.6 3 Sudeste 8 Sudeste 0.4 1021.6 -- 90
2020-11-04 03:00:00 9.7 5 Sur 8 Sur 0.2 1022.2 -- 87
2020-11-04 02:00:00 9.9 3 Este 7 Sur 0 1023 -- 87
2020-11-04 01:00:00 10.2 4 Sur 8 Sur 0 1023.7 -- 84
2020-11-04 00:00:00 10.9 2 Sudeste 15 Este 0 1024.6 -- 81
2020-11-03 23:00:00 11.4 3 Sudeste 11 Este 0 1025.1 -- 76
2020-11-03 22:00:00 11.4 5 Nordeste 13 Norte 0 1025.9 -- 76
2020-11-03 21:00:00 11.6 6 Noroeste 24 Norte 0 1026.2 -- 75
2020-11-03 20:00:00 12.1 12 Nordeste 21 Nordeste 0 1026.2 -- 71
2020-11-03 19:00:00 12.3 12 Nordeste 24 Nordeste 0 1026 -- 67
2020-11-03 18:00:00 12.7 13 Nordeste 25 Norte 0 1026.1 -- 67
2020-11-03 17:00:00 13 16 Norte 31 Norte 0 1026.3 -- 63
2020-11-03 16:00:00 13.4 18 Norte 32 Norte 0 1026.6 -- 60
2020-11-03 15:00:00 13.5 22 Norte 32 Norte 0 1026.8 -- 63
2020-11-03 14:00:00 14.3 19 Nordeste 33 Nordeste 0 1026.8 -- 61
2020-11-03 13:00:00 13.7 14 Norte 42 Norte 0 1027.3 -- 61
2020-11-03 12:00:00 14 27 Norte 41 Norte 0 1027.4 -- 62
2020-11-03 11:00:00 13.1 17 Norte 41 Norte 0 1026.9 -- 61
2020-11-03 10:00:00 13.3 17 Norte 38 Norte 0 1026.3 -- 58
2020-11-03 09:00:00 12.9 19 Norte 34 Norte 0 1025.5 -- 61
2020-11-03 08:00:00 12.7 21 Norte 32 Norte 0 1024.5 -- 60
2020-11-03 07:00:00 12.8 16 Norte 35 Norte 0 1023.9 -- 61
2020-11-03 06:00:00 13.2 17 Norte 32 Noroeste 0 1023.5 -- 65
2020-11-03 05:00:00 13.4 19 Noroeste 33 Noroeste 0 1022.9 -- 66
2020-11-03 04:00:00 13.3 18 Norte 32 Norte 0 1022.6 -- 75
2020-11-03 03:00:00 13.5 13 Noroeste 26 Noroeste 0 1022.3 -- 77
2020-11-03 02:00:00 12.9 11 Oeste 27 Oeste 0 1021.8 -- 87
2020-11-03 01:00:00 13.1 17 Sudoeste 27 Oeste 0.2 1021.5 -- 81
2020-11-03 00:00:00 13.1 10 Sudoeste 14 Sur 0 1021.2 -- 78
2020-11-02 23:00:00 13.1 8 Sudoeste 12 Sudoeste 0 1020.9 -- 78
2020-11-02 22:00:00 13.2 8 Sudoeste 11 Sudoeste 0 1020.6 -- 79
2020-11-02 21:00:00 13.5 5 Sudoeste 8 Sudoeste 0 1020.2 -- 81
2020-11-02 20:00:00 13.6 5 Oeste 7 Oeste 0 1019.6 -- 81
2020-11-02 19:00:00 14.3 5 Oeste 11 Noroeste 0 1018.9 -- 78
2020-11-02 18:00:00 14.7 6 Noroeste 17 Noroeste 0 1018.3 -- 77
2020-11-02 17:00:00 15.3 10 Noroeste 19 Noroeste 0 1017.7 -- 75
2020-11-02 16:00:00 15.9 9 Noroeste 19 Noroeste 0 1017.3 -- 78
2020-11-02 15:00:00 16 9 Noroeste 18 Noroeste 0 1016.9 -- 77
2020-11-02 14:00:00 16 10 Noroeste 20 Noroeste 0 1016.9 -- 80
2020-11-02 13:00:00 15.6 10 Noroeste 28 Noroeste 0.2 1016.5 -- 81
2020-11-02 12:00:00 15.9 10 Noroeste 23 Noroeste 0 1016.3 -- 83
2020-11-02 11:00:00 15.2 12 Noroeste 32 Oeste 0.4 1015.5 -- 88
2020-11-02 10:00:00 14.7 14 Oeste 41 Oeste 2 1014.6 -- 97
2020-11-02 09:00:00 15.3 17 Oeste 46 Oeste 1.6 1013.3 -- 96
2020-11-02 08:00:00 18.2 22 Oeste 56 Oeste 3.6 1011.8 -- 89
2020-11-02 07:00:00 20 21 Sudoeste 41 Sudoeste 0 1010.3 -- 81
2020-11-02 06:00:00 20.1 22 Sudoeste 43 Sudoeste 0 1010.2 -- 81
2020-11-02 05:00:00 19.9 21 Sudoeste 37 Sudoeste 0 1010.3 -- 83
2020-11-02 04:00:00 20.1 17 Sudoeste 50 Sudoeste 0 1010.4 -- 81
2020-11-02 03:00:00 20.2 19 Sudoeste 40 Sur 0 1010.4 -- 79
2020-11-02 02:00:00 20.3 21 Sudoeste 51 Sudoeste 0 1010.4 -- 78
2020-11-02 01:00:00 20.1 18 Sur 49 Sur 0 1010.8 -- 79
2020-11-02 00:00:00 20.2 18 Sudoeste 45 Sudoeste 0 1011.3 -- 77
2020-11-01 23:00:00 20.4 23 Sudoeste 45 Sudoeste 0 1011.1 -- 76
2020-11-01 22:00:00 20.3 28 Sudoeste 52 Sur 0 1011.2 -- 77
2020-11-01 21:00:00 20 21 Sudoeste 41 Sudoeste 0 1011.3 -- 78
2020-11-01 20:00:00 20 18 Sudoeste 41 Sudoeste 0 1011.3 -- 80
2020-11-01 19:00:00 19.9 16 Sudoeste 39 Sudoeste 0 1010.9 -- 80
2020-11-01 18:00:00 19.9 11 Sudoeste 34 Sudoeste 0 1011 -- 83
2020-11-01 17:00:00 20.7 18 Sudoeste 43 Sudoeste 0 1011.2 -- 80
2020-11-01 16:00:00 21.1 24 Sudoeste 49 Sudoeste 0 1011.2 -- 77
2020-11-01 15:00:00 21.7 23 Sudoeste 51 Sudoeste 0 1011.3 -- 76
2020-11-01 14:00:00 21.9 27 Sudoeste 48 Sudoeste 0 1012.1 -- 75
2020-11-01 13:00:00 21.6 20 Sudoeste 36 Sudoeste 0 1012.7 -- 78
2020-11-01 12:00:00 20.7 17 Sudoeste 34 Sudoeste 0 1013.1 -- 80
2020-11-01 11:00:00 20.1 11 Sur 27 Sur 0 1013.3 -- 83
2020-11-01 10:00:00 19.3 11 Sur 26 Sur 0.4 1013.2 -- 86
2020-11-01 09:00:00 19.3 14 Sur 32 Sudoeste 0 1012.7 -- 84
2020-11-01 08:00:00 19.5 13 Sur 36 Oeste 0 1012.2 -- 82
2020-11-01 07:00:00 19.5 15 Sur 33 Sur 0 1012 -- 82
2020-11-01 06:00:00 19.7 16 Sudoeste 36 Sur 0 1011.9 -- 81
2020-11-01 05:00:00 19.6 15 Sur 52 Sur 0 1011.8 -- 82
2020-11-01 04:00:00 19.7 20 Sudoeste 47 Sudoeste 0 1012.1 -- 81
2020-11-01 03:00:00 19.5 16 Sudoeste 45 Sudoeste 0 1012.1 -- 81
2020-11-01 02:00:00 19.8 21 Sur 55 Sur 0 1012.1 -- 80
2020-11-01 01:00:00 19.7 19 Sudoeste 45 Sur 0 1012.7 -- 81
2020-11-01 00:00:00 19.5 16 Sudoeste 39 Sudoeste 0 1012.9 -- 81
2020-10-31 23:00:00 19.3 18 Sur 42 Sur 0.4 1012.6 -- 83
2020-10-31 22:00:00 19.5 20 Sur 48 Sudoeste 0 1012.7 -- 79
2020-10-31 21:00:00 19.6 23 Sudoeste 57 Sudoeste 0 1013 -- 79
2020-10-31 20:00:00 19.7 23 Sur 49 Sudoeste 0 1012.5 -- 78
2020-10-31 19:00:00 19.7 17 Sudoeste 48 Sur 0 1012.8 -- 79
2020-10-31 18:00:00 20 12 Sudoeste 50 Sudoeste 0 1012.9 -- 79
2020-10-31 17:00:00 20.3 19 Sur 48 Sudoeste 0 1012.6 -- 77
2020-10-31 16:00:00 20.8 17 Sur 46 Sudoeste 0 1013 -- 75
2020-10-31 15:00:00 20.9 17 Sur 54 Sudoeste 0 1012.5 -- 75
2020-10-31 14:00:00 21 17 Sur 41 Sudoeste 0 1012.9 -- 75
2020-10-31 13:00:00 21.1 19 Sudoeste 49 Sudoeste 0 1013.7 -- 74
2020-10-31 12:00:00 20.5 22 Sudoeste 45 Sudoeste 0 1013.9 -- 76
2020-10-31 11:00:00 19.8 23 Sudoeste 48 Sur 0 1014.2 -- 78
2020-10-31 10:00:00 19.8 26 Sur 50 Sur 0 1012.6 -- 77
2020-10-31 09:00:00 18.7 19 Sur 48 Sudoeste 0 1013 -- 82
2020-10-31 08:00:00 18.1 16 Sur 42 Sur 0 1012 -- 84
2020-10-31 07:00:00 17.9 14 Sur 37 Sudoeste 0 1012.3 -- 83
2020-10-31 06:00:00 17.6 16 Sur 35 Sur 0 1012.8 -- 84
2020-10-31 05:00:00 17.6 15 Sur 42 Sur 0 1012.3 -- 83
2020-10-31 04:00:00 17.2 13 Sur 40 Sur 0 1012.9 -- 83
2020-10-31 03:00:00 16.9 17 Sur 38 Sudeste 0 1012.9 -- 83
2020-10-31 02:00:00 16.9 14 Sur 31 Sur 0 1013.6 -- 82
2020-10-31 01:00:00 16.8 13 Sur 30 Sudoeste 0 1013.6 -- 81
2020-10-31 00:00:00 16.8 20 Sur 42 Sur 0 1013.7 -- 80
2020-10-30 23:00:00 16.4 8 Sur 27 Sur 0 1014 -- 80
2020-10-30 22:00:00 16.6 10 Sudeste 23 Sur 0 1014.4 -- 78
2020-10-30 21:00:00 17 10 Sudeste 17 Sudeste 0 1014.4 -- 78
2020-10-30 20:00:00 17.9 7 Sudeste 19 Sur 0 1014.8 -- 73
2020-10-30 19:00:00 18.6 5 Sudoeste 27 Sudoeste 0 1014.9 -- 71
2020-10-30 18:00:00 19.5 10 Sudoeste 28 Sur 0 1014.7 -- 68
2020-10-30 17:00:00 20.1 12 Sur 38 Sur 0 1014.2 -- 65
2020-10-30 16:00:00 21.3 17 Sur 30 Sur 0 1014.6 -- 61
2020-10-30 15:00:00 21.3 15 Sur 32 Sur 0 1015.2 -- 61
2020-10-30 14:00:00 21 13 Sur 31 Sur 0 1015.7 -- 61
2020-10-30 13:00:00 20.6 16 Sur 32 Sur 0 1016.1 -- 61
2020-10-30 12:00:00 18.8 14 Sur 32 Sur 0 1016.2 -- 63
2020-10-30 11:00:00 17.8 17 Sur 36 Sur 0 1016.4 -- 65
2020-10-30 10:00:00 16.8 12 Sur 28 Sur 0 1016.2 -- 69
2020-10-30 09:00:00 13.2 3 Sudeste 9 Sudeste 0 1016 -- 82
2020-10-30 08:00:00 11.7 4 Sudeste 8 Sudeste 0 1015.7 -- 85
2020-10-30 07:00:00 12 5 Sudeste 14 Sudeste 0 1016 -- 83
2020-10-30 06:00:00 12.5 10 Sudeste 19 Sur 0 1016.2 -- 82
2020-10-30 05:00:00 12.1 8 Sudeste 12 Sudeste 0 1016.4 -- 83
2020-10-30 04:00:00 12.2 5 Sudoeste 8 Sudoeste 0 1016.8 -- 82
2020-10-30 03:00:00 13 5 Sur 11 Sur 0 1017 -- 80
2020-10-30 02:00:00 13.6 6 Sudeste 12 Sur 0 1017.1 -- 76
2020-10-30 01:00:00 13.6 4 Sudeste 9 Sur 0 1017.2 -- 76
2020-10-30 00:00:00 13.8 4 Sur 12 Sur 0 1017.6 -- 74
2020-10-29 23:00:00 14 9 Sur 12 Sur 0 1017.6 -- 74
2020-10-29 22:00:00 14.3 8 Sur 12 Sur 0 1017.4 -- 73
2020-10-29 21:00:00 14.6 5 Sudoeste 13 Sudoeste 0 1017.4 -- 72
2020-10-29 20:00:00 15.1 6 Sudoeste 16 Sudoeste 0 1017.1 -- 71
2020-10-29 19:00:00 15.7 6 Sudoeste 21 Sudoeste 0 1016.5 -- 68
2020-10-29 18:00:00 16.8 12 Sudoeste 24 Sur 0 1016.2 -- 63
2020-10-29 17:00:00 17.4 17 Sudoeste 28 Sudoeste 0 1016.4 -- 60
2020-10-29 16:00:00 18.1 14 Sudoeste 25 Sur 0 1016.6 -- 59
2020-10-29 15:00:00 18.4 14 Sudoeste 29 Sur 0 1017.2 -- 57
2020-10-29 14:00:00 17.3 15 Sudoeste 29 Sudoeste 0 1017.8 -- 61
2020-10-29 13:00:00 18.1 16 Sudoeste 32 Sudoeste 0 1018.3 -- 59
2020-10-29 12:00:00 18.1 14 Sur 29 Sur 0 1018.4 -- 58
2020-10-29 11:00:00 17.3 13 Sur 26 Sur 0 1018.3 -- 63
2020-10-29 10:00:00 16.1 10 Sur 18 Sur 0 1017.7 -- 68
2020-10-29 09:00:00 14.3 9 Sur 18 Sur 0 1017.3 -- 78
2020-10-29 08:00:00 13.7 4 Sur 10 Sur 0 1016.9 -- 79
2020-10-29 07:00:00 14.1 4 Sur 16 Sur 0 1016.9 -- 80
2020-10-29 06:00:00 14.8 7 Sur 19 Sur 0 1016.7 -- 78
2020-10-29 05:00:00 14.8 10 Sur 21 Sur 0 1016.8 -- 81
2020-10-29 04:00:00 14.8 8 Sur 19 Sudoeste 0 1017 -- 80
2020-10-29 03:00:00 15 10 Sur 20 Sur 0 1017.1 -- 77
2020-10-29 02:00:00 14.5 10 Sudoeste 17 Sur 0 1017.2 -- 79
2020-10-29 01:00:00 13.8 7 Sudoeste 18 Sur 0 1017.3 -- 84
2020-10-29 00:00:00 14 9 Sur 19 Sudoeste 0 1017.1 -- 83
2020-10-28 23:00:00 14.2 13 Sudoeste 23 Sur 0 1016.9 -- 82
2020-10-28 22:00:00 14.5 10 Sur 21 Sur 0 1016.6 -- 82
2020-10-28 21:00:00 15.3 9 Sur 21 Sur 0 1016.4 -- 76
2020-10-28 20:00:00 15.7 10 Sudoeste 20 Sudoeste 0 1016.3 -- 75
2020-10-28 19:00:00 16.2 10 Sudoeste 26 Sudoeste 0 1015.6 -- 70
2020-10-28 18:00:00 16.8 15 Sudoeste 28 Sudoeste 0 1015.1 -- 67
2020-10-28 17:00:00 16.8 11 Sudoeste 24 Sudoeste 0 1014.8 -- 71
2020-10-28 16:00:00 17.2 14 Oeste 32 Oeste 0 1014.6 -- 73
2020-10-28 15:00:00 17.9 14 Oeste 26 Sudoeste 0 1014.2 -- 67
2020-10-28 14:00:00 18 15 Oeste 36 Sudoeste 0 1014.2 -- 67
2020-10-28 13:00:00 17.7 14 Sudoeste 33 Sudoeste 0 1014.3 -- 68
2020-10-28 12:00:00 17.1 12 Oeste 37 Sudoeste 0 1014.3 -- 72
2020-10-28 11:00:00 17 14 Sudoeste 34 Sudoeste 0 1013.4 -- 68
2020-10-28 10:00:00 16.1 13 Sudoeste 24 Sudoeste 0 1012.7 -- 74
2020-10-28 09:00:00 14.6 15 Sudoeste 24 Sur 0 1012.2 -- 79
2020-10-28 08:00:00 14.1 8 Sudoeste 17 Sudoeste 0 1011.3 -- 77
2020-10-28 07:00:00 14.2 9 Sudoeste 23 Sudoeste 0 1011.1 -- 74
2020-10-28 06:00:00 13.8 12 Sudoeste 22 Sudoeste 0 1010.5 -- 77
2020-10-28 05:00:00 13.4 14 Sudoeste 23 Sudoeste 0 1010.2 -- 81
2020-10-28 04:00:00 13.5 13 Sudoeste 21 Sur 0 1010.1 -- 84
2020-10-28 03:00:00 13.5 10 Sudoeste 16 Sudoeste 0 1010.1 -- 86
2020-10-28 02:00:00 13.9 11 Sudoeste 28 Sudoeste 0 1010.1 -- 86
2020-10-28 01:00:00 14.4 13 Sudoeste 27 Sudoeste 0.2 1010.3 -- 87
2020-10-28 00:00:00 14.5 13 Sudoeste 26 Sudoeste 0 1010 -- 88
2020-10-27 23:00:00 15.2 15 Oeste 27 Sudoeste 0 1009.2 -- 87
2020-10-27 22:00:00 15.4 14 Sudoeste 30 Sudoeste 0 1008.9 -- 86
2020-10-27 21:00:00 15.5 15 Sudoeste 31 Sudoeste 0 1008.1 -- 87
2020-10-27 20:00:00 15.4 18 Sudoeste 30 Sudoeste 0 1007.3 -- 87
2020-10-27 19:00:00 14.8 8 Sur 23 Sudoeste 0.2 1006.9 -- 90
2020-10-27 18:00:00 14.2 15 Sudoeste 39 Oeste 2.2 1006.7 -- 96
2020-10-27 17:00:00 14.7 17 Oeste 44 Oeste 2.8 1006.3 -- 94
2020-10-27 16:00:00 17.6 23 Sudoeste 51 Sur 0.2 1005.5 -- 83
2020-10-27 15:00:00 18.1 28 Sur 57 Sudoeste 0 1004.4 -- 77
2020-10-27 14:00:00 17.5 21 Sur 57 Sudoeste 0 1004.5 -- 79
2020-10-27 13:00:00 17.2 26 Sudoeste 60 Sudoeste 0 1005.1 -- 79
2020-10-27 12:00:00 17.3 26 Sudoeste 59 Sudoeste 0 1005.4 -- 75
2020-10-27 11:00:00 16.7 25 Sudoeste 49 Sudoeste 0 1006.1 -- 77
2020-10-27 10:00:00 16 18 Sudoeste 42 Sudoeste 0 1006.2 -- 79
2020-10-27 09:00:00 15.5 17 Sur 38 Sur 0 1006.2 -- 79
2020-10-27 08:00:00 15 17 Sur 36 Sudoeste 0 1006.4 -- 80
2020-10-27 07:00:00 15 11 Sur 42 Sudoeste 0 1006.9 -- 78
2020-10-27 06:00:00 14.6 14 Sur 39 Sudoeste 0 1007.4 -- 79
2020-10-27 05:00:00 14.5 19 Sudoeste 48 Sudoeste 0 1007.6 -- 76
2020-10-27 04:00:00 14.3 21 Sudoeste 41 Sudoeste 0 1008.4 -- 76
2020-10-27 03:00:00 13.3 13 Sur 35 Sudoeste 0 1009.1 -- 84
2020-10-27 02:00:00 13.9 11 Sudoeste 33 Sur 0 1010 -- 78
2020-10-27 01:00:00 13.8 19 Sudoeste 34 Sudoeste 0 1010.4 -- 77
2020-10-27 00:00:00 13.7 19 Sudoeste 39 Sudoeste 0 1011 -- 77